Time;durP1;ratioP1;P1;durP2;ratioP2;P2;SDS_P1;SDS_P2;PMS_P1;PMS_P2;Temp;Humidity;BMP_temperature;BMP_pressure;BME280_temperature;BME280_humidity;BME280_pressure;Samples;Min_cycle;Max_cycle;Signal;HPM_P1;HPM_P2
2022/03/12 00:00:37;;;;;;;459.25;171.65;;;-4.70;99.90;;;;;;5096540;28;20109;-53
2022/03/12 00:03:04;;;;;;;486.92;173.32;;;-4.70;99.90;;;;;;5096202;28;20032;-52
2022/03/12 00:05:34;;;;;;;558.28;199.63;;;-4.80;99.90;;;;;;5096511;28;20082;-53
2022/03/12 00:08:02;;;;;;;481.20;174.05;;;-4.80;99.90;;;;;;5096379;28;20023;-53
2022/03/12 00:10:32;;;;;;;511.20;179.05;;;-4.80;99.90;;;;;;5081861;28;20052;-53
2022/03/12 00:12:59;;;;;;;555.50;194.73;;;-4.80;99.90;;;;;;5076018;28;20462;-53
2022/03/12 00:15:25;;;;;;;549.67;195.45;;;-4.90;99.90;;;;;;5076079;28;20028;-52
2022/03/12 00:17:52;;;;;;;514.85;179.65;;;-5.00;99.90;;;;;;5076077;28;20020;-53
2022/03/12 00:20:21;;;;;;;469.30;172.88;;;-5.00;99.90;;;;;;5075766;28;20406;-53
2022/03/12 00:22:51;;;;;;;311.10;115.68;;;-5.10;99.90;;;;;;5075874;28;20046;-53
2022/03/12 00:25:27;;;;;;;518.05;167.52;;;-5.00;99.90;;;;;;5076026;28;20029;-53
2022/03/12 00:27:54;;;;;;;559.25;173.05;;;-5.00;99.90;;;;;;5075809;28;20048;-53
2022/03/12 00:30:22;;;;;;;461.55;152.77;;;-5.10;99.90;;;;;;5075621;28;20028;-53
2022/03/12 00:32:53;;;;;;;429.05;149.13;;;-5.20;99.90;;;;;;5075682;28;20077;-53
2022/03/12 00:35:20;;;;;;;365.05;134.73;;;-5.00;99.90;;;;;;5075834;28;20028;-53
2022/03/12 00:37:46;;;;;;;369.40;132.80;;;-4.80;99.90;;;;;;5075588;28;20024;-53
2022/03/12 00:40:15;;;;;;;382.60;142.10;;;-4.90;99.90;;;;;;5075690;28;20032;-53
2022/03/12 00:42:42;;;;;;;370.15;140.50;;;-5.00;99.90;;;;;;5075335;28;20032;-53
2022/03/12 00:45:10;;;;;;;343.65;131.80;;;-5.20;99.90;;;;;;5075495;28;20043;-53
2022/03/12 00:47:36;;;;;;;339.90;128.30;;;-5.10;99.90;;;;;;5075431;28;20462;-53
2022/03/12 00:50:03;;;;;;;337.75;129.43;;;-5.20;99.90;;;;;;5075158;28;20025;-53
2022/03/12 00:52:29;;;;;;;375.10;131.48;;;-5.20;99.90;;;;;;5075437;28;20029;-53
2022/03/12 00:54:56;;;;;;;474.63;152.10;;;-5.30;99.90;;;;;;5075242;28;20437;-53
2022/03/12 00:57:22;;;;;;;489.83;160.80;;;-5.30;99.90;;;;;;5075391;28;20025;-53
2022/03/12 00:59:48;;;;;;;487.70;153.13;;;-5.20;99.90;;;;;;5075141;28;20028;-53
2022/03/12 01:02:18;;;;;;;518.53;157.88;;;-5.30;99.90;;;;;;5074803;28;20062;-53
2022/03/12 01:04:44;;;;;;;427.10;140.77;;;-5.20;99.90;;;;;;5075115;28;20488;-53
2022/03/12 01:07:12;;;;;;;346.52;126.28;;;-5.20;99.90;;;;;;5074991;28;20051;-53
2022/03/12 01:09:39;;;;;;;335.20;120.95;;;-5.30;99.90;;;;;;5087615;28;20517;-52
2022/03/12 01:12:09;;;;;;;327.45;120.53;;;-5.30;99.90;;;;;;5074851;28;20493;-53
2022/03/12 01:14:38;;;;;;;335.93;118.87;;;-5.30;99.90;;;;;;5074404;28;20029;-53
2022/03/12 01:17:06;;;;;;;325.05;118.85;;;-5.20;99.90;;;;;;5074912;28;20273;-53
2022/03/12 01:19:34;;;;;;;283.80;105.78;;;-5.30;99.90;;;;;;5074718;28;20043;-53
2022/03/12 01:22:05;;;;;;;263.90;102.97;;;-5.30;99.90;;;;;;5074721;28;20356;-53
2022/03/12 01:24:32;;;;;;;246.13;98.22;;;-5.30;99.90;;;;;;5075100;28;20036;-53
2022/03/12 01:26:58;;;;;;;262.50;103.13;;;-5.40;99.90;;;;;;5074735;28;20064;-53
2022/03/12 01:29:25;;;;;;;272.63;102.60;;;-5.50;99.90;;;;;;5074690;28;20024;-53
2022/03/12 01:31:51;;;;;;;266.48;104.43;;;-5.60;99.90;;;;;;5074469;28;20047;-53
2022/03/12 01:34:21;;;;;;;267.17;106.10;;;-5.60;99.90;;;;;;5074858;28;20033;-53
2022/03/12 01:36:47;;;;;;;297.15;109.07;;;-5.60;99.90;;;;;;5074659;28;20093;-53
2022/03/12 01:39:13;;;;;;;289.75;109.05;;;-5.70;99.90;;;;;;5074438;28;20082;-53
2022/03/12 01:41:42;;;;;;;264.38;106.03;;;-5.70;99.90;;;;;;5074903;28;20028;-53
2022/03/12 01:44:12;;;;;;;263.85;101.97;;;-5.70;99.90;;;;;;5074653;28;20036;-53
2022/03/12 01:46:42;;;;;;;255.95;102.97;;;-5.70;99.90;;;;;;5074415;28;20107;-53
2022/03/12 01:49:16;;;;;;;264.25;102.82;;;-5.70;99.90;;;;;;5074591;28;20046;-53
2022/03/12 01:51:44;;;;;;;270.33;105.57;;;-5.70;99.90;;;;;;5074534;28;20104;-53
2022/03/12 01:54:10;;;;;;;303.48;109.75;;;-5.60;99.90;;;;;;5074555;28;20064;-53
2022/03/12 01:56:38;;;;;;;316.90;114.78;;;-5.70;99.90;;;;;;5074669;28;20029;-53
2022/03/12 01:59:05;;;;;;;328.60;117.28;;;-5.70;99.90;;;;;;5074471;28;20434;-53
2022/03/12 02:01:32;;;;;;;309.80;112.90;;;-5.70;99.90;;;;;;5074358;28;20028;-53
2022/03/12 02:04:03;;;;;;;292.10;106.78;;;-5.80;99.90;;;;;;5074371;28;20481;-53
2022/03/12 02:06:29;;;;;;;517.42;154.13;;;-5.70;99.90;;;;;;5093736;28;20031;-53
2022/03/12 02:08:58;;;;;;;371.92;123.55;;;-5.70;99.90;;;;;;5093036;28;20451;-53
2022/03/12 02:11:28;;;;;;;338.08;120.88;;;-5.50;99.90;;;;;;5074193;28;20108;-53
2022/03/12 02:14:25;;;;;;;284.95;108.22;;;-5.50;99.90;;;;;;5074388;28;20489;-53
2022/03/12 02:16:54;;;;;;;308.73;110.50;;;-5.50;99.90;;;;;;5074057;28;20025;-53
2022/03/12 02:19:22;;;;;;;295.65;107.70;;;-5.50;99.90;;;;;;5074326;28;20040;-53
2022/03/12 02:22:03;;;;;;;263.23;99.63;;;-5.60;99.90;;;;;;5074194;28;20028;-53
2022/03/12 02:24:32;;;;;;;239.15;94.13;;;-5.80;99.90;;;;;;5075173;28;20035;-53
2022/03/12 02:27:00;;;;;;;234.65;94.05;;;-5.80;99.90;;;;;;5078646;28;20043;-53
2022/03/12 02:29:27;;;;;;;233.38;92.10;;;-5.90;99.90;;;;;;5077753;28;20127;-53
2022/03/12 02:32:01;;;;;;;238.25;93.55;;;-5.90;99.90;;;;;;5078017;28;20071;-53
2022/03/12 02:34:35;;;;;;;235.88;90.65;;;-6.00;99.90;;;;;;5078079;28;20074;-53
2022/03/12 02:37:01;;;;;;;260.85;98.07;;;-6.00;99.90;;;;;;5077794;28;20029;-53
2022/03/12 02:39:27;;;;;;;282.85;98.15;;;-5.80;99.90;;;;;;5077969;28;20029;-53
2022/03/12 02:41:59;;;;;;;248.25;90.78;;;-5.70;99.90;;;;;;5077763;28;20032;-53
2022/03/12 02:44:26;;;;;;;279.65;95.78;;;-5.70;99.90;;;;;;5077916;28;20090;-53
2022/03/12 02:47:15;;;;;;;235.95;87.57;;;-5.60;99.90;;;;;;5077646;28;20024;-53
2022/03/12 02:49:50;;;;;;;239.57;86.72;;;-5.50;99.90;;;;;;5077688;28;20024;-53
2022/03/12 02:52:18;;;;;;;216.25;81.10;;;-5.60;99.90;;;;;;5077543;28;20474;-53
2022/03/12 02:54:44;;;;;;;200.43;81.25;;;-5.70;99.90;;;;;;5077462;28;20237;-53
2022/03/12 02:57:11;;;;;;;202.57;79.43;;;-5.70;99.90;;;;;;5077608;28;20024;-53
2022/03/12 02:59:43;;;;;;;202.07;81.00;;;-5.70;99.90;;;;;;5077657;28;20028;-53
2022/03/12 03:02:11;;;;;;;204.85;80.25;;;-5.70;99.90;;;;;;5097566;28;20039;-53
2022/03/12 03:04:40;;;;;;;208.05;80.90;;;-5.60;99.90;;;;;;5097685;28;20032;-53
2022/03/12 03:07:08;;;;;;;191.40;77.28;;;-5.50;99.90;;;;;;5097276;28;20043;-53
2022/03/12 03:09:35;;;;;;;186.80;76.75;;;-5.50;99.90;;;;;;5090534;28;20129;-53
2022/03/12 03:12:06;;;;;;;272.25;93.72;;;-5.50;99.90;;;;;;5077098;28;20031;-53
2022/03/12 03:14:32;;;;;;;186.93;74.63;;;-5.60;99.90;;;;;;5077115;28;20040;-53
2022/03/12 03:16:59;;;;;;;181.43;69.07;;;-5.60;99.90;;;;;;5077127;28;20052;-53
2022/03/12 03:19:26;;;;;;;237.57;85.88;;;-5.50;99.90;;;;;;5076852;28;20078;-53
2022/03/12 03:21:54;;;;;;;252.98;90.97;;;-5.50;99.90;;;;;;5077111;28;20063;-53
2022/03/12 03:24:20;;;;;;;223.07;84.32;;;-5.50;99.90;;;;;;5077069;28;20544;-53
2022/03/12 03:26:55;;;;;;;180.18;72.75;;;-5.60;99.90;;;;;;5076922;28;20036;-53
2022/03/12 03:29:23;;;;;;;227.98;83.15;;;-5.80;99.90;;;;;;5076884;28;20033;-53
2022/03/12 03:31:50;;;;;;;197.80;76.78;;;-5.90;99.90;;;;;;5076850;28;20029;-53
2022/03/12 03:34:17;;;;;;;208.70;80.88;;;-5.90;99.90;;;;;;5076924;28;20425;-53
2022/03/12 03:36:43;;;;;;;228.45;86.95;;;-5.90;99.90;;;;;;5076144;28;20060;-53
2022/03/12 03:39:09;;;;;;;262.77;95.38;;;-5.90;99.90;;;;;;5076725;28;20073;-53
2022/03/12 03:41:36;;;;;;;247.93;90.15;;;-5.90;99.90;;;;;;5076615;28;20382;-53
2022/03/12 03:44:05;;;;;;;220.50;88.28;;;-6.00;99.90;;;;;;5076543;28;20210;-53
2022/03/12 03:46:32;;;;;;;198.50;83.03;;;-6.00;99.90;;;;;;5076603;28;20021;-53
2022/03/12 03:48:58;;;;;;;179.45;76.35;;;-6.00;99.90;;;;;;5076791;28;20040;-53
2022/03/12 03:51:24;;;;;;;178.95;71.18;;;-6.00;99.90;;;;;;5076505;28;20021;-53
2022/03/12 03:53:51;;;;;;;173.15;71.15;;;-6.00;99.90;;;;;;5076536;28;20028;-53
2022/03/12 03:56:18;;;;;;;190.13;74.22;;;-6.10;99.90;;;;;;5076375;28;20024;-53
2022/03/12 03:58:44;;;;;;;174.70;66.88;;;-6.20;99.90;;;;;;5076458;28;20096;-53
2022/03/12 04:01:18;;;;;;;160.98;65.80;;;-6.30;99.90;;;;;;5076284;28;20454;-53
2022/03/12 04:03:54;;;;;;;153.48;63.85;;;-6.30;99.90;;;;;;5076432;28;20025;-53
2022/03/12 04:06:22;;;;;;;155.82;64.30;;;-6.30;99.90;;;;;;5076296;28;20040;-53
2022/03/12 04:08:50;;;;;;;161.13;63.95;;;-6.30;99.90;;;;;;5075797;28;20029;-53
2022/03/12 04:11:20;;;;;;;156.38;61.88;;;-6.30;99.90;;;;;;5076107;28;20036;-53
2022/03/12 04:13:47;;;;;;;157.70;63.00;;;-6.40;99.90;;;;;;5076029;28;20485;-53
2022/03/12 04:16:14;;;;;;;198.95;75.70;;;-6.50;99.90;;;;;;5075871;28;20036;-53
2022/03/12 04:18:43;;;;;;;248.55;87.72;;;-6.50;99.90;;;;;;5076051;28;20029;-53
2022/03/12 04:21:09;;;;;;;247.30;90.18;;;-6.40;99.90;;;;;;5076095;28;20032;-53
2022/03/12 04:23:36;;;;;;;243.25;82.05;;;-6.30;99.90;;;;;;5075864;28;20031;-53
2022/03/12 04:26:02;;;;;;;385.40;119.32;;;-6.20;99.90;;;;;;5075747;28;20025;-53
2022/03/12 04:28:33;;;;;;;403.48;123.07;;;-6.20;99.90;;;;;;5075911;28;20501;-53
2022/03/12 04:31:00;;;;;;;437.00;129.32;;;-6.20;99.90;;;;;;5075650;28;20024;-53
2022/03/12 04:33:28;;;;;;;242.95;82.47;;;-6.30;99.90;;;;;;5075611;28;20029;-53
2022/03/12 04:35:56;;;;;;;201.18;73.53;;;-6.50;99.90;;;;;;5075709;28;20078;-53
2022/03/12 04:38:23;;;;;;;168.65;65.35;;;-6.60;99.90;;;;;;5075305;28;20028;-53
2022/03/12 04:40:49;;;;;;;150.68;60.95;;;-6.60;99.90;;;;;;5095619;28;20032;-53
2022/03/12 04:43:18;;;;;;;142.60;58.20;;;-6.60;99.90;;;;;;5095643;28;20505;-53
2022/03/12 04:45:46;;;;;;;151.40;57.65;;;-6.50;99.90;;;;;;5095703;28;20032;-53
2022/03/12 04:48:14;;;;;;;137.45;56.90;;;-6.40;99.90;;;;;;5094701;28;20016;-53
2022/03/12 04:50:41;;;;;;;131.63;54.28;;;-6.50;99.90;;;;;;5095636;28;20024;-53
2022/03/12 04:53:08;;;;;;;131.55;53.35;;;-6.50;99.90;;;;;;5095485;28;20024;-53
2022/03/12 04:55:36;;;;;;;151.63;60.38;;;-6.60;99.90;;;;;;5095475;28;20089;-53
2022/03/12 04:58:07;;;;;;;148.13;58.28;;;-6.60;99.90;;;;;;5095584;28;20073;-52
2022/03/12 05:00:40;;;;;;;144.77;59.30;;;-6.50;99.90;;;;;;5095500;28;20043;-53
2022/03/12 05:03:09;;;;;;;;;;;-6.50;99.90;;;;;;5095920;28;20035;-53
2022/03/12 05:05:40;;;;;;;132.27;51.97;;;-6.70;99.90;;;;;;5095253;28;19954;-53
2022/03/12 05:08:13;;;;;;;142.00;54.72;;;-6.70;99.90;;;;;;5095359;28;20035;-53
2022/03/12 05:10:39;;;;;;;124.30;53.30;;;-6.70;99.90;;;;;;5079236;28;20044;-53
2022/03/12 05:13:06;;;;;;;207.07;75.97;;;-6.60;99.90;;;;;;5074769;28;20382;-53
2022/03/12 05:15:38;;;;;;;209.93;78.10;;;-6.70;99.90;;;;;;5074906;28;20051;-52
2022/03/12 05:18:12;;;;;;;193.27;73.63;;;-6.80;99.90;;;;;;5074946;28;20134;-53
2022/03/12 05:20:40;;;;;;;187.52;69.80;;;-6.80;99.90;;;;;;5094954;28;20031;-53
2022/03/12 05:23:07;;;;;;;218.85;81.30;;;-6.80;99.90;;;;;;5095133;28;20114;-53
2022/03/12 05:25:42;;;;;;;186.23;69.78;;;-6.80;99.90;;;;;;5095039;28;20038;-53
2022/03/12 05:28:10;;;;;;;189.43;70.15;;;-6.60;99.90;;;;;;5094838;28;20367;-53
2022/03/12 05:30:36;;;;;;;218.38;77.88;;;-6.30;99.90;;;;;;5094637;28;20039;-53
2022/03/12 05:33:04;;;;;;;189.98;72.25;;;-5.90;99.90;;;;;;5094930;28;20086;-53
2022/03/12 05:35:30;;;;;;;181.40;71.03;;;-5.60;99.90;;;;;;5094962;28;20077;-53
2022/03/12 05:37:56;;;;;;;193.80;73.35;;;-5.40;99.90;;;;;;5094949;28;20050;-53
2022/03/12 05:40:28;;;;;;;191.85;73.30;;;-5.30;99.90;;;;;;5094792;28;20114;-53
2022/03/12 05:42:57;;;;;;;205.30;78.55;;;-5.30;99.90;;;;;;5094837;28;20063;-53
2022/03/12 05:45:24;;;;;;;229.63;86.82;;;-5.20;99.90;;;;;;5094685;28;20477;-53
2022/03/12 05:47:50;;;;;;;223.90;84.03;;;-4.60;99.90;;;;;;5094692;28;20031;-53
2022/03/12 05:50:19;;;;;;;186.38;74.20;;;-4.20;99.90;;;;;;5094614;28;20378;-53
2022/03/12 05:52:48;;;;;;;180.57;72.68;;;-4.00;99.90;;;;;;5094537;28;20498;-53
2022/03/12 05:55:18;;;;;;;183.50;71.75;;;-3.60;99.90;;;;;;5094469;28;20028;-53
2022/03/12 05:57:44;;;;;;;173.90;72.65;;;-3.70;99.90;;;;;;5094654;28;20055;-53
2022/03/12 06:00:12;;;;;;;171.13;69.00;;;-3.40;99.90;;;;;;5094406;28;20073;-53
2022/03/12 06:02:49;;;;;;;158.85;67.80;;;-3.30;99.90;;;;;;5094799;28;20027;-53
2022/03/12 06:05:21;;;;;;;204.27;76.65;;;-3.40;99.90;;;;;;5094628;28;20058;-53
2022/03/12 06:07:49;;;;;;;214.95;87.15;;;-3.30;99.90;;;;;;5094406;28;20438;-53
2022/03/12 06:10:24;;;;;;;213.20;85.05;;;-3.10;99.90;;;;;;5081660;28;20037;-53
2022/03/12 06:12:53;;;;;;;213.00;84.65;;;-2.80;99.90;;;;;;5074136;28;20029;-53
2022/03/12 06:15:21;;;;;;;200.05;82.97;;;-2.70;99.90;;;;;;5074168;28;20158;-53
2022/03/12 06:17:49;;;;;;;239.77;92.70;;;-2.40;99.90;;;;;;5053880;28;20032;-53
2022/03/12 06:20:17;;;;;;;237.18;97.20;;;-2.10;99.90;;;;;;5054111;28;20025;-53
2022/03/12 06:22:44;;;;;;;240.50;97.35;;;-2.10;99.90;;;;;;5054134;28;20033;-53
2022/03/12 06:25:14;;;;;;;240.95;99.97;;;-2.00;99.90;;;;;;5053988;28;20041;-53
2022/03/12 06:27:42;;;;;;;192.68;81.30;;;-1.70;99.90;;;;;;5054115;28;20032;-53
2022/03/12 06:30:10;;;;;;;247.52;104.38;;;-1.50;99.90;;;;;;5053772;28;20483;-53
2022/03/12 06:32:38;;;;;;;241.40;98.63;;;-1.40;99.90;;;;;;5053730;28;20036;-53
2022/03/12 06:35:06;;;;;;;239.23;99.43;;;-1.30;99.90;;;;;;5053921;28;20040;-53
2022/03/12 06:37:32;;;;;;;226.80;93.30;;;-1.10;99.90;;;;;;5053926;28;20036;-53
2022/03/12 06:40:00;;;;;;;216.05;92.32;;;-0.90;99.90;;;;;;5053942;28;20025;-53
2022/03/12 06:42:28;;;;;;;215.88;95.72;;;-0.60;99.90;;;;;;5053875;28;20028;-53
2022/03/12 06:44:56;;;;;;;208.07;93.13;;;-0.30;99.90;;;;;;5053706;28;20493;-53
2022/03/12 06:47:28;;;;;;;217.93;100.97;;;-0.50;99.90;;;;;;5053897;28;20387;-53
2022/03/12 06:49:56;;;;;;;205.88;88.88;;;-1.20;99.90;;;;;;5053611;28;20526;-53
2022/03/12 06:52:21;;;;;;;203.82;87.53;;;-0.70;99.90;;;;;;5053749;28;20025;-53
2022/03/12 06:54:47;;;;;;;193.13;86.03;;;-0.20;99.90;;;;;;5053765;28;20428;-53
2022/03/12 06:57:13;;;;;;;203.10;86.57;;;0.30;99.90;;;;;;5053788;28;20100;-54
2022/03/12 06:59:39;;;;;;;183.25;75.15;;;0.40;98.20;;;;;;5053793;28;20493;-53
2022/03/12 07:02:07;;;;;;;172.00;70.55;;;0.50;98.30;;;;;;5053988;28;20110;-53
2022/03/12 07:04:34;;;;;;;166.65;73.43;;;0.30;99.00;;;;;;5053724;28;20126;-53
2022/03/12 07:07:01;;;;;;;160.23;66.18;;;-0.20;98.10;;;;;;5053629;28;20021;-53
2022/03/12 07:09:29;;;;;;;168.65;70.55;;;0.20;98.40;;;;;;5053388;28;20172;-54
2022/03/12 07:11:58;;;;;;;176.85;73.45;;;0.50;98.10;;;;;;5055024;28;20029;-54
2022/03/12 07:14:26;;;;;;;157.73;70.78;;;0.80;97.00;;;;;;5057004;28;20434;-53
2022/03/12 07:16:55;;;;;;;165.85;71.57;;;1.30;96.60;;;;;;5057041;28;20037;-53
2022/03/12 07:19:22;;;;;;;172.75;74.20;;;1.90;96.40;;;;;;5056947;28;20498;-54
2022/03/12 07:21:49;;;;;;;159.23;70.65;;;2.10;94.90;;;;;;5057064;28;20087;-54
2022/03/12 07:24:16;;;;;;;146.00;63.75;;;2.20;93.40;;;;;;5057311;28;20075;-54
2022/03/12 07:26:43;;;;;;;140.23;65.22;;;1.90;93.80;;;;;;5057099;28;20502;-54
2022/03/12 07:29:09;;;;;;;142.13;64.15;;;2.40;94.10;;;;;;5056824;28;20041;-54
2022/03/12 07:31:37;;;;;;;163.75;67.00;;;2.40;92.40;;;;;;5056575;28;20032;-54
2022/03/12 07:34:04;;;;;;;158.88;68.18;;;2.60;93.40;;;;;;5056749;28;20029;-54
2022/03/12 07:36:30;;;;;;;143.85;62.42;;;3.00;91.30;;;;;;5057034;28;20063;-54
2022/03/12 07:38:58;;;;;;;143.68;64.68;;;3.20;87.90;;;;;;5056510;28;20399;-54
2022/03/12 07:41:25;;;;;;;139.60;61.78;;;3.30;87.80;;;;;;5056635;28;20113;-54
2022/03/12 07:43:53;;;;;;;143.05;62.15;;;3.30;87.50;;;;;;5056455;28;20013;-54
2022/03/12 07:46:19;;;;;;;144.00;62.13;;;3.70;88.30;;;;;;5056704;28;20037;-54
2022/03/12 07:48:45;;;;;;;150.35;60.47;;;4.00;81.20;;;;;;5056583;28;20017;-54
2022/03/12 07:51:12;;;;;;;131.77;57.95;;;3.80;81.30;;;;;;5056491;28;20029;-54
2022/03/12 07:53:38;;;;;;;127.35;55.67;;;4.20;76.40;;;;;;5056294;28;20545;-54
2022/03/12 07:56:05;;;;;;;114.72;53.90;;;3.70;76.80;;;;;;5056283;28;20041;-54
2022/03/12 07:58:31;;;;;;;126.18;56.83;;;3.70;87.80;;;;;;5076709;28;20377;-54
2022/03/12 08:00:58;;;;;;;129.40;60.10;;;4.00;80.70;;;;;;5076275;28;20032;-54
2022/03/12 08:03:25;;;;;;;123.38;55.45;;;4.60;68.30;;;;;;5076281;28;20086;-54
2022/03/12 08:05:53;;;;;;;121.13;58.92;;;5.40;65.60;;;;;;5076081;28;20032;-54
2022/03/12 08:08:19;;;;;;;127.63;58.03;;;5.30;61.20;;;;;;5076238;28;20536;-54
2022/03/12 08:13:30;;;;;;;111.00;52.47;;;5.70;56.70;;;;;;5074393;28;20078;-54
2022/03/12 08:15:58;;;;;;;107.28;49.03;;;6.10;54.30;;;;;;5076784;27;20054;-54
2022/03/12 08:18:24;;;;;;;119.22;55.25;;;6.50;51.80;;;;;;5113639;27;20542;-55
2022/03/12 08:20:52;;;;;;;115.78;53.55;;;6.70;49.90;;;;;;5108020;28;20044;-54
2022/03/12 08:23:18;;;;;;;108.25;51.15;;;6.60;49.50;;;;;;5084999;28;20044;-55
2022/03/12 08:25:44;;;;;;;82.35;40.97;;;7.20;49.00;;;;;;5043105;28;20398;-55
2022/03/12 08:28:11;;;;;;;98.18;46.60;;;7.50;44.60;;;;;;5086916;28;20043;-54
2022/03/12 08:30:37;;;;;;;91.50;46.00;;;6.20;48.60;;;;;;5075504;28;20036;-54
2022/03/12 08:33:04;;;;;;;107.28;49.38;;;6.40;47.80;;;;;;5075501;28;20393;-54
2022/03/12 08:35:31;;;;;;;100.90;45.92;;;7.00;47.80;;;;;;5075629;28;20025;-54
2022/03/12 08:37:57;;;;;;;101.50;47.80;;;7.50;47.60;;;;;;5075719;28;20027;-54
2022/03/12 08:40:25;;;;;;;96.18;47.15;;;7.40;46.30;;;;;;5075547;28;20086;-54
2022/03/12 08:42:54;;;;;;;88.07;43.50;;;7.50;45.50;;;;;;5075361;28;20036;-54
2022/03/12 08:45:21;;;;;;;88.63;43.88;;;7.10;44.10;;;;;;5075505;28;20389;-54
2022/03/12 08:47:47;;;;;;;93.30;43.08;;;7.30;45.50;;;;;;5075618;28;20032;-55
2022/03/12 08:50:14;;;;;;;81.85;42.47;;;8.20;44.60;;;;;;5075325;28;20041;-54
2022/03/12 08:52:42;;;;;;;82.10;39.38;;;8.10;42.80;;;;;;5075308;28;20028;-54
2022/03/12 08:55:09;;;;;;;74.93;38.80;;;8.40;41.20;;;;;;5074999;28;20029;-54
2022/03/12 08:57:35;;;;;;;83.90;40.38;;;8.10;39.40;;;;;;5075100;28;20027;-54
2022/03/12 09:00:05;;;;;;;59.30;32.70;;;7.80;40.20;;;;;;5075199;28;20430;-54
2022/03/12 09:02:34;;;;;;;74.28;36.70;;;8.10;39.70;;;;;;5075233;28;20043;-54
2022/03/12 09:05:01;;;;;;;70.25;37.38;;;8.60;38.70;;;;;;5075031;28;20020;-54
2022/03/12 09:07:27;;;;;;;62.20;31.70;;;9.60;39.10;;;;;;5075007;28;20032;-54
2022/03/12 09:09:54;;;;;;;62.15;31.30;;;9.90;34.80;;;;;;5075035;28;20044;-54
2022/03/12 09:12:20;;;;;;;53.47;28.42;;;9.50;34.80;;;;;;5075054;28;20028;-54
2022/03/12 09:14:47;;;;;;;65.53;32.38;;;9.20;34.40;;;;;;5074709;28;20028;-54
2022/03/12 09:17:13;;;;;;;62.92;30.90;;;8.60;35.00;;;;;;5074787;28;20115;-54
2022/03/12 09:19:39;;;;;;;60.22;30.15;;;8.80;35.30;;;;;;5074801;28;20043;-54
2022/03/12 09:22:05;;;;;;;54.15;29.02;;;9.90;34.40;;;;;;5074648;28;20098;-54
2022/03/12 09:24:31;;;;;;;61.80;30.65;;;9.60;33.00;;;;;;5074860;28;20032;-54
2022/03/12 09:26:59;;;;;;;60.67;31.10;;;9.60;32.30;;;;;;5074465;28;20032;-54
2022/03/12 09:29:26;;;;;;;57.10;30.05;;;10.10;32.00;;;;;;5094758;28;20115;-54
2022/03/12 09:31:52;;;;;;;51.95;28.27;;;10.10;31.80;;;;;;5094672;28;20425;-54
2022/03/12 09:34:18;;;;;;;47.60;24.92;;;10.50;31.40;;;;;;5094263;28;20024;-54
2022/03/12 09:36:45;;;;;;;47.85;26.08;;;10.40;30.30;;;;;;5094802;28;20382;-54
2022/03/12 09:39:11;;;;;;;48.25;23.70;;;10.90;30.10;;;;;;5095284;28;20035;-54
2022/03/12 09:41:38;;;;;;;35.60;18.60;;;10.20;28.10;;;;;;5094751;28;20031;-54
2022/03/12 09:44:08;;;;;;;27.65;14.70;;;10.50;26.40;;;;;;5094532;28;20056;-54
2022/03/12 09:46:34;;;;;;;34.10;19.05;;;10.60;25.30;;;;;;5094294;28;20056;-55
2022/03/12 09:49:00;;;;;;;36.10;18.38;;;11.60;26.00;;;;;;5094722;28;20035;-55
2022/03/12 09:51:29;;;;;;;40.22;19.92;;;11.80;24.90;;;;;;5094531;28;20030;-54
2022/03/12 09:53:55;;;;;;;21.13;10.82;;;12.10;24.30;;;;;;5094627;28;20040;-54
2022/03/12 09:56:21;;;;;;;24.95;12.70;;;11.70;22.90;;;;;;5094454;28;20097;-54
2022/03/12 09:58:47;;;;;;;33.97;17.08;;;11.50;20.80;;;;;;5094542;28;20028;-54
2022/03/12 10:01:13;;;;;;;29.67;18.38;;;11.30;21.80;;;;;;5094340;28;20059;-54
2022/03/12 10:03:44;;;;;;;29.73;16.02;;;11.70;22.20;;;;;;5094319;28;20058;-54
2022/03/12 10:06:15;;;;;;;26.67;15.40;;;12.00;22.00;;;;;;5094489;28;20386;-55
2022/03/12 10:08:42;;;;;;;31.15;16.80;;;11.60;22.00;;;;;;5094590;28;20016;-54
2022/03/12 10:11:08;;;;;;;26.20;14.80;;;11.80;22.90;;;;;;5074441;28;20028;-54
2022/03/12 10:13:34;;;;;;;29.30;16.63;;;12.60;22.70;;;;;;5074205;28;20020;-54
2022/03/12 10:16:01;;;;;;;31.73;16.88;;;13.30;22.20;;;;;;5079603;28;20020;-55
2022/03/12 10:18:28;;;;;;;28.65;16.50;;;13.60;21.70;;;;;;5094438;28;20335;-55
2022/03/12 10:20:54;;;;;;;31.33;17.23;;;14.00;21.60;;;;;;5094623;28;20067;-54
2022/03/12 10:23:20;;;;;;;37.72;18.23;;;13.60;21.20;;;;;;5094170;28;20488;-54
2022/03/12 10:25:46;;;;;;;33.42;18.50;;;13.90;21.70;;;;;;5094270;28;20035;-55
2022/03/12 10:28:13;;;;;;;39.13;21.00;;;14.10;21.30;;;;;;5094154;28;20079;-54
2022/03/12 10:30:40;;;;;;;36.28;16.77;;;13.60;21.20;;;;;;5093971;28;20039;-55
2022/03/12 10:33:06;;;;;;;40.20;17.35;;;14.10;21.80;;;;;;5093971;28;20028;-55
2022/03/12 10:35:38;;;;;;;32.42;18.27;;;13.20;21.00;;;;;;5094296;28;20031;-55
2022/03/12 10:38:11;;;;;;;33.67;17.15;;;12.60;21.10;;;;;;5094156;28;20032;-54
2022/03/12 10:40:38;;;;;;;40.28;19.20;;;13.00;21.20;;;;;;5094017;28;20053;-55
2022/03/12 10:43:12;;;;;;;40.95;19.00;;;13.20;21.00;;;;;;5093949;28;20032;-55
2022/03/12 10:45:43;;;;;;;47.28;21.55;;;13.70;21.40;;;;;;5095209;28;20420;-54
2022/03/12 10:48:10;;;;;;;34.28;18.98;;;14.10;20.70;;;;;;5097834;28;20024;-54
2022/03/12 10:50:43;;;;;;;30.75;17.30;;;13.90;20.00;;;;;;5097760;28;20047;-55
2022/03/12 10:53:11;;;;;;;32.35;18.30;;;13.70;19.70;;;;;;5098239;28;20055;-55
2022/03/12 10:55:41;;;;;;;43.30;19.52;;;12.70;19.70;;;;;;5097585;28;20478;-55
2022/03/12 10:58:23;;;;;;;31.00;15.95;;;13.20;20.30;;;;;;5097868;28;20020;-54
2022/03/12 11:00:55;;;;;;;34.83;18.90;;;13.70;20.50;;;;;;5097613;28;20093;-54
2022/03/12 11:03:23;;;;;;;30.40;17.58;;;14.00;20.60;;;;;;5097583;28;20032;-55
2022/03/12 11:05:50;;;;;;;40.30;18.23;;;13.70;20.50;;;;;;5097710;28;20035;-55
2022/03/12 11:08:20;;;;;;;41.63;19.58;;;13.90;20.80;;;;;;5097479;28;20322;-55
2022/03/12 11:10:59;;;;;;;35.17;17.67;;;13.60;20.80;;;;;;5080616;28;20060;-54
2022/03/12 11:13:39;;;;;;;32.00;17.02;;;13.40;20.80;;;;;;5057198;28;20107;-54
2022/03/12 11:16:11;;;;;;;35.45;17.35;;;12.80;20.50;;;;;;5069195;28;20069;-54
2022/03/12 11:18:37;;;;;;;31.33;17.67;;;13.20;20.40;;;;;;5097183;28;20043;-55
2022/03/12 11:21:03;;;;;;;34.15;18.08;;;12.50;20.20;;;;;;5097470;28;20046;-54
2022/03/12 11:23:32;;;;;;;31.27;18.58;;;13.10;21.50;;;;;;5097357;28;20031;-54
2022/03/12 11:26:07;;;;;;;32.92;18.77;;;13.30;21.20;;;;;;5097264;28;20062;-54
2022/03/12 11:28:36;;;;;;;27.25;15.48;;;13.00;21.30;;;;;;5097220;28;20056;-55
2022/03/12 11:31:06;;;;;;;31.83;17.67;;;13.30;21.80;;;;;;5096927;28;20036;-54
2022/03/12 11:33:32;;;;;;;;;;;13.20;20.60;;;;;;5097898;28;20052;-54
2022/03/12 11:36:01;;;;;;;29.60;17.70;;;13.40;21.20;;;;;;5097220;28;19923;-54
2022/03/12 11:38:32;;;;;;;34.20;18.38;;;13.40;20.60;;;;;;5096848;28;20032;-54
2022/03/12 11:41:05;;;;;;;27.80;17.05;;;13.10;21.00;;;;;;5096913;28;20456;-54
2022/03/12 11:43:36;;;;;;;28.00;15.43;;;13.40;21.80;;;;;;5096782;28;20027;-54
2022/03/12 11:46:05;;;;;;;31.73;16.45;;;12.90;20.70;;;;;;5096909;28;20035;-54
2022/03/12 11:48:32;;;;;;;33.40;19.00;;;13.70;21.00;;;;;;5096966;28;20416;-54
2022/03/12 11:51:02;;;;;;;32.97;17.27;;;13.70;20.80;;;;;;5096683;28;20040;-54
2022/03/12 11:53:36;;;;;;;26.60;15.35;;;13.00;20.10;;;;;;5096816;28;20107;-54
2022/03/12 11:56:04;;;;;;;30.73;17.25;;;13.10;20.10;;;;;;5096448;28;20016;-54
2022/03/12 11:58:32;;;;;;;30.58;16.73;;;12.40;20.10;;;;;;5096015;28;20389;-54
2022/03/12 12:00:58;;;;;;;28.70;16.42;;;12.70;21.10;;;;;;5096960;28;20081;-54
2022/03/12 12:03:24;;;;;;;31.80;17.98;;;12.30;21.40;;;;;;5096544;28;20362;-54
2022/03/12 12:05:51;;;;;;;35.67;18.30;;;10.80;21.80;;;;;;5096503;28;20060;-54
2022/03/12 12:08:17;;;;;;;28.75;16.92;;;10.50;22.60;;;;;;5096316;28;20440;-54
2022/03/12 12:10:43;;;;;;;30.27;18.23;;;11.00;23.00;;;;;;5079839;28;20096;-54
2022/03/12 12:13:14;;;;;;;31.75;17.25;;;11.30;23.10;;;;;;5076068;28;20083;-54
2022/03/12 12:15:43;;;;;;;33.45;17.48;;;11.50;23.30;;;;;;5075890;28;20025;-54
2022/03/12 12:18:12;;;;;;;42.25;20.40;;;12.00;23.10;;;;;;5076465;28;20050;-54
2022/03/12 12:20:40;;;;;;;32.38;18.08;;;12.30;23.00;;;;;;5076577;28;20029;-54
2022/03/12 12:23:06;;;;;;;34.58;17.08;;;12.20;23.00;;;;;;5076400;28;20069;-54
2022/03/12 12:25:37;;;;;;;30.10;17.30;;;11.80;23.00;;;;;;5076863;28;20040;-54
2022/03/12 12:28:18;;;;;;;25.05;15.52;;;12.20;23.20;;;;;;5076520;28;20047;-54